sensor_id;sensor_type;location;lat;lon;timestamp;P1;durP1;ratioP1;P2;durP2;ratioP2
4971;SDS011;2501;51.214;6.768;2022-12-01T00:01:36;50.55;;;23.20;;
4971;SDS011;2501;51.214;6.768;2022-12-01T00:04:04;43.40;;;20.95;;
4971;SDS011;2501;51.214;6.768;2022-12-01T00:06:33;41.50;;;22.13;;
4971;SDS011;2501;51.214;6.768;2022-12-01T00:09:01;45.13;;;21.02;;
4971;SDS011;2501;51.214;6.768;2022-12-01T00:11:50;45.78;;;22.48;;
4971;SDS011;2501;51.214;6.768;2022-12-01T00:14:19;45.78;;;21.17;;
4971;SDS011;2501;51.214;6.768;2022-12-01T00:16:47;46.45;;;23.27;;
4971;SDS011;2501;51.214;6.768;2022-12-01T00:19:15;46.57;;;22.00;;
4971;SDS011;2501;51.214;6.768;2022-12-01T00:21:44;42.70;;;21.85;;
4971;SDS011;2501;51.214;6.768;2022-12-01T00:24:13;47.20;;;23.27;;
4971;SDS011;2501;51.214;6.768;2022-12-01T00:26:41;46.00;;;22.55;;
4971;SDS011;2501;51.214;6.768;2022-12-01T00:29:12;45.60;;;21.38;;
4971;SDS011;2501;51.214;6.768;2022-12-01T00:31:41;50.25;;;24.13;;
4971;SDS011;2501;51.214;6.768;2022-12-01T00:34:11;47.88;;;24.48;;
4971;SDS011;2501;51.214;6.768;2022-12-01T00:36:49;48.53;;;22.88;;
4971;SDS011;2501;51.214;6.768;2022-12-01T00:39:17;42.22;;;21.05;;
4971;SDS011;2501;51.214;6.768;2022-12-01T00:41:46;45.00;;;20.83;;
4971;SDS011;2501;51.214;6.768;2022-12-01T00:44:16;37.60;;;19.10;;
4971;SDS011;2501;51.214;6.768;2022-12-01T00:46:45;46.57;;;22.37;;
4971;SDS011;2501;51.214;6.768;2022-12-01T00:49:13;43.20;;;20.92;;
4971;SDS011;2501;51.214;6.768;2022-12-01T00:51:42;40.53;;;20.23;;
4971;SDS011;2501;51.214;6.768;2022-12-01T00:54:10;40.43;;;20.30;;
4971;SDS011;2501;51.214;6.768;2022-12-01T00:56:39;40.78;;;21.88;;
4971;SDS011;2501;51.214;6.768;2022-12-01T00:59:07;42.65;;;22.30;;
4971;SDS011;2501;51.214;6.768;2022-12-01T01:01:38;41.23;;;21.90;;
4971;SDS011;2501;51.214;6.768;2022-12-01T01:04:07;38.33;;;21.10;;
4971;SDS011;2501;51.214;6.768;2022-12-01T01:06:35;43.33;;;23.02;;
4971;SDS011;2501;51.214;6.768;2022-12-01T01:09:04;50.50;;;23.70;;
4971;SDS011;2501;51.214;6.768;2022-12-01T01:11:33;50.30;;;23.60;;
4971;SDS011;2501;51.214;6.768;2022-12-01T01:14:01;53.22;;;25.30;;
4971;SDS011;2501;51.214;6.768;2022-12-01T01:16:30;51.17;;;24.90;;
4971;SDS011;2501;51.214;6.768;2022-12-01T01:19:01;55.60;;;25.50;;
4971;SDS011;2501;51.214;6.768;2022-12-01T01:21:30;61.10;;;26.50;;
4971;SDS011;2501;51.214;6.768;2022-12-01T01:23:58;52.97;;;24.67;;
4971;SDS011;2501;51.214;6.768;2022-12-01T01:26:28;55.45;;;25.25;;
4971;SDS011;2501;51.214;6.768;2022-12-01T01:28:58;60.30;;;27.75;;
4971;SDS011;2501;51.214;6.768;2022-12-01T01:31:28;62.22;;;26.63;;
4971;SDS011;2501;51.214;6.768;2022-12-01T01:33:57;59.83;;;26.70;;
4971;SDS011;2501;51.214;6.768;2022-12-01T01:36:28;68.13;;;26.80;;
4971;SDS011;2501;51.214;6.768;2022-12-01T01:38:57;63.15;;;26.10;;
4971;SDS011;2501;51.214;6.768;2022-12-01T01:41:27;63.50;;;28.17;;
4971;SDS011;2501;51.214;6.768;2022-12-01T01:43:56;59.55;;;25.70;;
4971;SDS011;2501;51.214;6.768;2022-12-01T01:46:26;60.72;;;26.40;;
4971;SDS011;2501;51.214;6.768;2022-12-01T01:48:56;56.88;;;24.27;;
4971;SDS011;2501;51.214;6.768;2022-12-01T01:51:31;63.40;;;27.02;;
4971;SDS011;2501;51.214;6.768;2022-12-01T01:54:05;59.33;;;26.40;;
4971;SDS011;2501;51.214;6.768;2022-12-01T01:56:39;62.38;;;26.33;;
4971;SDS011;2501;51.214;6.768;2022-12-01T01:59:10;56.10;;;25.93;;
4971;SDS011;2501;51.214;6.768;2022-12-01T02:01:41;72.63;;;28.40;;
4971;SDS011;2501;51.214;6.768;2022-12-01T02:04:10;66.25;;;26.98;;
4971;SDS011;2501;51.214;6.768;2022-12-01T02:06:44;63.60;;;27.50;;
4971;SDS011;2501;51.214;6.768;2022-12-01T02:09:12;72.40;;;27.67;;
4971;SDS011;2501;51.214;6.768;2022-12-01T02:11:44;63.63;;;26.05;;
4971;SDS011;2501;51.214;6.768;2022-12-01T02:14:27;72.93;;;27.83;;
4971;SDS011;2501;51.214;6.768;2022-12-01T02:17:08;76.85;;;27.90;;
4971;SDS011;2501;51.214;6.768;2022-12-01T02:20:02;73.28;;;27.90;;
4971;SDS011;2501;51.214;6.768;2022-12-01T02:23:00;73.25;;;29.80;;
4971;SDS011;2501;51.214;6.768;2022-12-01T02:25:49;80.20;;;29.73;;
4971;SDS011;2501;51.214;6.768;2022-12-01T02:28:39;74.18;;;30.30;;
4971;SDS011;2501;51.214;6.768;2022-12-01T02:31:24;83.63;;;31.30;;
4971;SDS011;2501;51.214;6.768;2022-12-01T02:34:00;67.85;;;28.00;;
4971;SDS011;2501;51.214;6.768;2022-12-01T02:36:36;73.03;;;29.02;;
4971;SDS011;2501;51.214;6.768;2022-12-01T02:39:13;78.57;;;28.95;;
4971;SDS011;2501;51.214;6.768;2022-12-01T02:41:48;82.18;;;30.58;;
4971;SDS011;2501;51.214;6.768;2022-12-01T02:44:20;74.45;;;28.58;;
4971;SDS011;2501;51.214;6.768;2022-12-01T02:46:56;81.07;;;29.40;;
4971;SDS011;2501;51.214;6.768;2022-12-01T02:49:30;80.18;;;30.05;;
4971;SDS011;2501;51.214;6.768;2022-12-01T02:52:03;93.25;;;32.38;;
4971;SDS011;2501;51.214;6.768;2022-12-01T02:54:33;98.82;;;33.97;;
4971;SDS011;2501;51.214;6.768;2022-12-01T02:57:03;96.50;;;33.30;;
4971;SDS011;2501;51.214;6.768;2022-12-01T02:59:31;88.50;;;31.77;;
4971;SDS011;2501;51.214;6.768;2022-12-01T03:02:05;93.22;;;34.13;;
4971;SDS011;2501;51.214;6.768;2022-12-01T03:04:43;92.35;;;33.63;;
4971;SDS011;2501;51.214;6.768;2022-12-01T03:07:24;86.95;;;31.27;;
4971;SDS011;2501;51.214;6.768;2022-12-01T03:10:04;92.88;;;32.20;;
4971;SDS011;2501;51.214;6.768;2022-12-01T03:12:47;95.25;;;33.72;;
4971;SDS011;2501;51.214;6.768;2022-12-01T03:15:27;91.68;;;32.03;;
4971;SDS011;2501;51.214;6.768;2022-12-01T03:18:08;93.55;;;33.65;;
4971;SDS011;2501;51.214;6.768;2022-12-01T03:20:45;109.07;;;35.58;;
4971;SDS011;2501;51.214;6.768;2022-12-01T03:23:24;99.80;;;35.65;;
4971;SDS011;2501;51.214;6.768;2022-12-01T03:25:57;95.38;;;34.15;;
4971;SDS011;2501;51.214;6.768;2022-12-01T03:28:32;98.20;;;34.03;;
4971;SDS011;2501;51.214;6.768;2022-12-01T03:31:05;96.07;;;32.75;;
4971;SDS011;2501;51.214;6.768;2022-12-01T03:33:42;101.43;;;34.22;;
4971;SDS011;2501;51.214;6.768;2022-12-01T03:36:18;107.07;;;35.90;;
4971;SDS011;2501;51.214;6.768;2022-12-01T03:38:54;100.10;;;33.90;;
4971;SDS011;2501;51.214;6.768;2022-12-01T03:41:27;93.30;;;32.33;;
4971;SDS011;2501;51.214;6.768;2022-12-01T03:44:00;84.30;;;32.05;;
4971;SDS011;2501;51.214;6.768;2022-12-01T03:46:34;87.25;;;31.33;;
4971;SDS011;2501;51.214;6.768;2022-12-01T03:49:11;94.18;;;31.63;;
4971;SDS011;2501;51.214;6.768;2022-12-01T03:51:43;93.50;;;31.97;;
4971;SDS011;2501;51.214;6.768;2022-12-01T03:54:21;89.97;;;31.55;;
4971;SDS011;2501;51.214;6.768;2022-12-01T03:56:58;96.95;;;33.80;;
4971;SDS011;2501;51.214;6.768;2022-12-01T03:59:30;96.60;;;34.95;;
4971;SDS011;2501;51.214;6.768;2022-12-01T04:02:02;90.25;;;32.33;;
4971;SDS011;2501;51.214;6.768;2022-12-01T04:04:35;101.95;;;34.53;;
4971;SDS011;2501;51.214;6.768;2022-12-01T04:07:03;91.27;;;33.03;;
4971;SDS011;2501;51.214;6.768;2022-12-01T04:09:37;96.13;;;33.83;;
4971;SDS011;2501;51.214;6.768;2022-12-01T04:12:06;100.50;;;35.95;;
4971;SDS011;2501;51.214;6.768;2022-12-01T04:14:48;108.25;;;35.65;;
4971;SDS011;2501;51.214;6.768;2022-12-01T04:17:17;92.93;;;32.38;;
4971;SDS011;2501;51.214;6.768;2022-12-01T04:19:48;86.35;;;32.72;;
4971;SDS011;2501;51.214;6.768;2022-12-01T04:22:16;91.95;;;31.75;;
4971;SDS011;2501;51.214;6.768;2022-12-01T04:24:45;77.43;;;29.70;;
4971;SDS011;2501;51.214;6.768;2022-12-01T04:27:13;80.53;;;32.58;;
4971;SDS011;2501;51.214;6.768;2022-12-01T04:29:42;77.47;;;30.60;;
4971;SDS011;2501;51.214;6.768;2022-12-01T04:32:10;71.73;;;28.23;;
4971;SDS011;2501;51.214;6.768;2022-12-01T04:34:39;66.83;;;28.00;;
4971;SDS011;2501;51.214;6.768;2022-12-01T04:37:10;64.07;;;25.80;;
4971;SDS011;2501;51.214;6.768;2022-12-01T04:39:39;62.90;;;24.77;;
4971;SDS011;2501;51.214;6.768;2022-12-01T04:42:08;56.47;;;25.60;;
4971;SDS011;2501;51.214;6.768;2022-12-01T04:44:37;54.72;;;24.17;;
4971;SDS011;2501;51.214;6.768;2022-12-01T04:47:05;54.75;;;23.45;;
4971;SDS011;2501;51.214;6.768;2022-12-01T04:49:34;49.20;;;23.20;;
4971;SDS011;2501;51.214;6.768;2022-12-01T04:52:02;51.63;;;23.43;;
4971;SDS011;2501;51.214;6.768;2022-12-01T04:54:34;53.30;;;24.45;;
4971;SDS011;2501;51.214;6.768;2022-12-01T04:57:02;53.60;;;24.58;;
4971;SDS011;2501;51.214;6.768;2022-12-01T04:59:31;50.90;;;22.58;;
4971;SDS011;2501;51.214;6.768;2022-12-01T05:01:59;43.75;;;21.95;;
4971;SDS011;2501;51.214;6.768;2022-12-01T05:04:28;52.83;;;24.27;;
4971;SDS011;2501;51.214;6.768;2022-12-01T05:06:58;52.40;;;23.63;;
4971;SDS011;2501;51.214;6.768;2022-12-01T05:09:26;48.27;;;23.33;;
4971;SDS011;2501;51.214;6.768;2022-12-01T05:11:57;50.65;;;24.08;;
4971;SDS011;2501;51.214;6.768;2022-12-01T05:14:26;51.70;;;23.33;;
4971;SDS011;2501;51.214;6.768;2022-12-01T05:16:54;46.70;;;22.42;;
4971;SDS011;2501;51.214;6.768;2022-12-01T05:19:24;50.83;;;24.15;;
4971;SDS011;2501;51.214;6.768;2022-12-01T05:22:05;54.75;;;24.80;;
4971;SDS011;2501;51.214;6.768;2022-12-01T05:24:33;55.13;;;24.90;;
4971;SDS011;2501;51.214;6.768;2022-12-01T05:27:04;50.25;;;22.83;;
4971;SDS011;2501;51.214;6.768;2022-12-01T05:29:33;50.55;;;23.73;;
4971;SDS011;2501;51.214;6.768;2022-12-01T05:32:01;53.97;;;25.33;;
4971;SDS011;2501;51.214;6.768;2022-12-01T05:34:30;49.03;;;24.52;;
4971;SDS011;2501;51.214;6.768;2022-12-01T05:36:58;51.92;;;24.38;;
4971;SDS011;2501;51.214;6.768;2022-12-01T05:39:27;49.92;;;23.65;;
4971;SDS011;2501;51.214;6.768;2022-12-01T05:41:55;59.13;;;26.00;;
4971;SDS011;2501;51.214;6.768;2022-12-01T05:44:26;56.85;;;25.75;;
4971;SDS011;2501;51.214;6.768;2022-12-01T05:46:54;55.40;;;25.00;;
4971;SDS011;2501;51.214;6.768;2022-12-01T05:49:23;49.83;;;24.35;;
4971;SDS011;2501;51.214;6.768;2022-12-01T05:51:51;45.97;;;23.27;;
4971;SDS011;2501;51.214;6.768;2022-12-01T05:54:20;51.20;;;24.35;;
4971;SDS011;2501;51.214;6.768;2022-12-01T05:56:48;53.22;;;24.38;;
4971;SDS011;2501;51.214;6.768;2022-12-01T05:59:16;50.65;;;23.65;;
4971;SDS011;2501;51.214;6.768;2022-12-01T06:01:47;53.80;;;24.70;;
4971;SDS011;2501;51.214;6.768;2022-12-01T06:04:16;55.25;;;24.67;;
4971;SDS011;2501;51.214;6.768;2022-12-01T06:06:45;57.85;;;25.50;;
4971;SDS011;2501;51.214;6.768;2022-12-01T06:09:13;53.63;;;25.88;;
4971;SDS011;2501;51.214;6.768;2022-12-01T06:11:41;64.68;;;27.58;;
4971;SDS011;2501;51.214;6.768;2022-12-01T06:14:10;65.30;;;28.77;;
4971;SDS011;2501;51.214;6.768;2022-12-01T06:16:38;62.88;;;26.23;;
4971;SDS011;2501;51.214;6.768;2022-12-01T06:19:09;59.10;;;26.35;;
4971;SDS011;2501;51.214;6.768;2022-12-01T06:21:38;59.33;;;26.70;;
4971;SDS011;2501;51.214;6.768;2022-12-01T06:24:06;58.78;;;27.10;;
4971;SDS011;2501;51.214;6.768;2022-12-01T06:26:35;56.35;;;25.13;;
4971;SDS011;2501;51.214;6.768;2022-12-01T06:29:03;59.67;;;26.00;;
4971;SDS011;2501;51.214;6.768;2022-12-01T06:31:31;57.40;;;25.90;;
4971;SDS011;2501;51.214;6.768;2022-12-01T06:34:00;65.37;;;27.90;;
4971;SDS011;2501;51.214;6.768;2022-12-01T06:36:31;69.57;;;31.17;;
4971;SDS011;2501;51.214;6.768;2022-12-01T06:38:59;84.72;;;33.65;;
4971;SDS011;2501;51.214;6.768;2022-12-01T06:41:28;74.40;;;33.47;;
4971;SDS011;2501;51.214;6.768;2022-12-01T06:43:56;85.35;;;35.85;;
4971;SDS011;2501;51.214;6.768;2022-12-01T06:46:24;93.15;;;34.58;;
4971;SDS011;2501;51.214;6.768;2022-12-01T06:48:54;86.07;;;34.08;;
4971;SDS011;2501;51.214;6.768;2022-12-01T06:51:23;81.85;;;32.42;;
4971;SDS011;2501;51.214;6.768;2022-12-01T06:53:55;74.97;;;29.40;;
4971;SDS011;2501;51.214;6.768;2022-12-01T06:56:24;79.45;;;31.70;;
4971;SDS011;2501;51.214;6.768;2022-12-01T06:58:52;68.47;;;30.93;;
4971;SDS011;2501;51.214;6.768;2022-12-01T07:01:21;73.45;;;30.25;;
4971;SDS011;2501;51.214;6.768;2022-12-01T07:03:50;81.90;;;31.27;;
4971;SDS011;2501;51.214;6.768;2022-12-01T07:06:18;84.15;;;31.35;;
4971;SDS011;2501;51.214;6.768;2022-12-01T07:08:47;105.82;;;32.22;;
4971;SDS011;2501;51.214;6.768;2022-12-01T07:11:18;66.53;;;28.23;;
4971;SDS011;2501;51.214;6.768;2022-12-01T07:13:47;102.87;;;32.40;;
4971;SDS011;2501;51.214;6.768;2022-12-01T07:16:16;90.65;;;32.45;;
4971;SDS011;2501;51.214;6.768;2022-12-01T07:18:44;76.07;;;30.77;;
4971;SDS011;2501;51.214;6.768;2022-12-01T07:21:13;65.25;;;26.95;;
4971;SDS011;2501;51.214;6.768;2022-12-01T07:23:41;95.03;;;31.27;;
4971;SDS011;2501;51.214;6.768;2022-12-01T07:26:11;157.50;;;37.67;;
4971;SDS011;2501;51.214;6.768;2022-12-01T07:28:43;104.18;;;29.88;;
4971;SDS011;2501;51.214;6.768;2022-12-01T07:31:13;107.80;;;31.08;;
4971;SDS011;2501;51.214;6.768;2022-12-01T07:33:42;80.05;;;28.33;;
4971;SDS011;2501;51.214;6.768;2022-12-01T07:36:11;95.72;;;30.58;;
4971;SDS011;2501;51.214;6.768;2022-12-01T07:38:40;96.35;;;31.10;;
4971;SDS011;2501;51.214;6.768;2022-12-01T07:41:10;101.72;;;30.98;;
4971;SDS011;2501;51.214;6.768;2022-12-01T07:43:39;73.70;;;28.83;;
4971;SDS011;2501;51.214;6.768;2022-12-01T07:46:12;118.72;;;34.55;;
4971;SDS011;2501;51.214;6.768;2022-12-01T07:48:41;96.28;;;33.15;;
4971;SDS011;2501;51.214;6.768;2022-12-01T07:51:12;120.35;;;34.83;;
4971;SDS011;2501;51.214;6.768;2022-12-01T07:53:42;67.18;;;28.17;;
4971;SDS011;2501;51.214;6.768;2022-12-01T07:56:11;101.45;;;30.77;;
4971;SDS011;2501;51.214;6.768;2022-12-01T07:58:41;78.45;;;28.27;;
4971;SDS011;2501;51.214;6.768;2022-12-01T08:01:12;65.45;;;26.67;;
4971;SDS011;2501;51.214;6.768;2022-12-01T08:03:42;76.90;;;29.67;;
4971;SDS011;2501;51.214;6.768;2022-12-01T08:06:11;79.15;;;30.90;;
4971;SDS011;2501;51.214;6.768;2022-12-01T08:08:40;194.30;;;41.70;;
4971;SDS011;2501;51.214;6.768;2022-12-01T08:11:09;129.32;;;35.70;;
4971;SDS011;2501;51.214;6.768;2022-12-01T08:13:39;75.82;;;30.90;;
4971;SDS011;2501;51.214;6.768;2022-12-01T08:16:12;69.68;;;28.15;;
4971;SDS011;2501;51.214;6.768;2022-12-01T08:18:43;140.50;;;35.97;;
4971;SDS011;2501;51.214;6.768;2022-12-01T08:21:12;67.28;;;28.65;;
4971;SDS011;2501;51.214;6.768;2022-12-01T08:23:42;117.28;;;33.33;;
4971;SDS011;2501;51.214;6.768;2022-12-01T08:26:12;74.05;;;28.10;;
4971;SDS011;2501;51.214;6.768;2022-12-01T08:28:42;117.63;;;34.73;;
4971;SDS011;2501;51.214;6.768;2022-12-01T08:31:14;70.25;;;29.13;;
4971;SDS011;2501;51.214;6.768;2022-12-01T08:33:44;74.70;;;30.23;;
4971;SDS011;2501;51.214;6.768;2022-12-01T08:36:13;72.55;;;30.85;;
4971;SDS011;2501;51.214;6.768;2022-12-01T08:38:42;69.85;;;29.83;;
4971;SDS011;2501;51.214;6.768;2022-12-01T08:41:11;123.57;;;34.75;;
4971;SDS011;2501;51.214;6.768;2022-12-01T08:43:40;63.20;;;28.85;;
4971;SDS011;2501;51.214;6.768;2022-12-01T08:46:09;63.30;;;27.30;;
4971;SDS011;2501;51.214;6.768;2022-12-01T08:48:41;87.45;;;30.38;;
4971;SDS011;2501;51.214;6.768;2022-12-01T08:51:10;77.43;;;28.88;;
4971;SDS011;2501;51.214;6.768;2022-12-01T08:53:40;124.47;;;35.25;;
4971;SDS011;2501;51.214;6.768;2022-12-01T08:56:11;67.20;;;28.77;;
4971;SDS011;2501;51.214;6.768;2022-12-01T08:58:42;67.90;;;28.45;;
4971;SDS011;2501;51.214;6.768;2022-12-01T09:01:13;78.22;;;29.95;;
4971;SDS011;2501;51.214;6.768;2022-12-01T09:03:43;101.93;;;31.97;;
4971;SDS011;2501;51.214;6.768;2022-12-01T09:06:13;83.80;;;31.95;;
4971;SDS011;2501;51.214;6.768;2022-12-01T09:08:44;134.50;;;34.77;;
4971;SDS011;2501;51.214;6.768;2022-12-01T09:11:13;71.97;;;30.10;;
4971;SDS011;2501;51.214;6.768;2022-12-01T09:13:44;70.67;;;30.00;;
4971;SDS011;2501;51.214;6.768;2022-12-01T09:16:16;74.80;;;30.50;;
4971;SDS011;2501;51.214;6.768;2022-12-01T09:18:45;68.15;;;29.23;;
4971;SDS011;2501;51.214;6.768;2022-12-01T09:21:15;67.27;;;27.87;;
4971;SDS011;2501;51.214;6.768;2022-12-01T09:23:45;74.32;;;29.50;;
4971;SDS011;2501;51.214;6.768;2022-12-01T09:26:14;82.37;;;33.60;;
4971;SDS011;2501;51.214;6.768;2022-12-01T09:28:44;86.25;;;30.80;;
4971;SDS011;2501;51.214;6.768;2022-12-01T09:31:13;129.77;;;34.80;;
4971;SDS011;2501;51.214;6.768;2022-12-01T09:33:44;95.20;;;32.28;;
4971;SDS011;2501;51.214;6.768;2022-12-01T09:36:14;79.15;;;30.30;;
4971;SDS011;2501;51.214;6.768;2022-12-01T09:38:42;73.60;;;29.00;;
4971;SDS011;2501;51.214;6.768;2022-12-01T09:41:16;101.50;;;34.40;;
4971;SDS011;2501;51.214;6.768;2022-12-01T09:43:48;90.18;;;30.48;;
4971;SDS011;2501;51.214;6.768;2022-12-01T09:46:25;68.68;;;28.15;;
4971;SDS011;2501;51.214;6.768;2022-12-01T09:48:57;90.37;;;31.73;;
4971;SDS011;2501;51.214;6.768;2022-12-01T09:51:29;112.20;;;35.45;;
4971;SDS011;2501;51.214;6.768;2022-12-01T09:54:01;110.03;;;35.25;;
4971;SDS011;2501;51.214;6.768;2022-12-01T09:56:30;129.38;;;36.95;;
4971;SDS011;2501;51.214;6.768;2022-12-01T09:59:04;104.77;;;33.17;;
4971;SDS011;2501;51.214;6.768;2022-12-01T10:01:38;136.70;;;37.28;;
4971;SDS011;2501;51.214;6.768;2022-12-01T10:04:11;101.50;;;34.20;;
4971;SDS011;2501;51.214;6.768;2022-12-01T10:06:43;96.80;;;32.33;;
4971;SDS011;2501;51.214;6.768;2022-12-01T10:09:19;93.22;;;32.30;;
4971;SDS011;2501;51.214;6.768;2022-12-01T10:11:50;116.63;;;32.97;;
4971;SDS011;2501;51.214;6.768;2022-12-01T10:14:26;98.00;;;31.98;;
4971;SDS011;2501;51.214;6.768;2022-12-01T10:17:02;85.07;;;30.23;;
4971;SDS011;2501;51.214;6.768;2022-12-01T10:19:38;73.18;;;27.20;;
4971;SDS011;2501;51.214;6.768;2022-12-01T10:22:28;98.63;;;29.27;;
4971;SDS011;2501;51.214;6.768;2022-12-01T10:25:14;63.17;;;25.40;;
4971;SDS011;2501;51.214;6.768;2022-12-01T10:27:53;71.80;;;26.90;;
4971;SDS011;2501;51.214;6.768;2022-12-01T10:30:32;54.58;;;24.15;;
4971;SDS011;2501;51.214;6.768;2022-12-01T10:33:08;62.58;;;24.23;;
4971;SDS011;2501;51.214;6.768;2022-12-01T10:35:49;90.40;;;27.02;;
4971;SDS011;2501;51.214;6.768;2022-12-01T10:38:21;95.28;;;27.65;;
4971;SDS011;2501;51.214;6.768;2022-12-01T10:40:53;66.60;;;27.02;;
4971;SDS011;2501;51.214;6.768;2022-12-01T10:43:26;85.10;;;27.90;;
4971;SDS011;2501;51.214;6.768;2022-12-01T10:45:59;69.32;;;26.30;;
4971;SDS011;2501;51.214;6.768;2022-12-01T10:48:58;72.70;;;27.48;;
4971;SDS011;2501;51.214;6.768;2022-12-01T10:51:44;99.72;;;30.08;;
4971;SDS011;2501;51.214;6.768;2022-12-01T10:54:15;83.55;;;30.00;;
4971;SDS011;2501;51.214;6.768;2022-12-01T10:56:45;79.10;;;28.95;;
4971;SDS011;2501;51.214;6.768;2022-12-01T10:59:20;70.28;;;27.15;;
4971;SDS011;2501;51.214;6.768;2022-12-01T11:01:52;69.78;;;26.55;;
4971;SDS011;2501;51.214;6.768;2022-12-01T11:04:26;63.78;;;26.08;;
4971;SDS011;2501;51.214;6.768;2022-12-01T11:07:01;59.50;;;24.77;;
4971;SDS011;2501;51.214;6.768;2022-12-01T11:09:30;64.30;;;25.55;;
4971;SDS011;2501;51.214;6.768;2022-12-01T11:11:59;56.67;;;23.75;;
4971;SDS011;2501;51.214;6.768;2022-12-01T11:14:32;57.28;;;23.80;;
4971;SDS011;2501;51.214;6.768;2022-12-01T11:17:24;55.97;;;25.80;;
4971;SDS011;2501;51.214;6.768;2022-12-01T11:19:58;50.15;;;23.00;;
4971;SDS011;2501;51.214;6.768;2022-12-01T11:22:54;55.25;;;24.17;;
4971;SDS011;2501;51.214;6.768;2022-12-01T11:26:02;52.63;;;22.55;;
4971;SDS011;2501;51.214;6.768;2022-12-01T11:28:39;50.72;;;22.90;;
4971;SDS011;2501;51.214;6.768;2022-12-01T11:31:17;52.53;;;22.73;;
4971;SDS011;2501;51.214;6.768;2022-12-01T11:33:48;56.83;;;23.27;;
4971;SDS011;2501;51.214;6.768;2022-12-01T11:36:29;48.90;;;24.00;;
4971;SDS011;2501;51.214;6.768;2022-12-01T11:39:04;50.92;;;23.85;;
4971;SDS011;2501;51.214;6.768;2022-12-01T11:41:34;58.53;;;23.10;;
4971;SDS011;2501;51.214;6.768;2022-12-01T11:44:05;57.10;;;23.98;;
4971;SDS011;2501;51.214;6.768;2022-12-01T11:46:44;51.67;;;23.63;;
4971;SDS011;2501;51.214;6.768;2022-12-01T11:49:14;52.42;;;24.13;;
4971;SDS011;2501;51.214;6.768;2022-12-01T11:51:47;45.70;;;21.63;;
4971;SDS011;2501;51.214;6.768;2022-12-01T11:54:16;50.38;;;23.65;;
4971;SDS011;2501;51.214;6.768;2022-12-01T11:56:46;81.80;;;26.23;;
4971;SDS011;2501;51.214;6.768;2022-12-01T11:59:16;88.88;;;28.85;;
4971;SDS011;2501;51.214;6.768;2022-12-01T12:01:52;93.63;;;29.73;;
4971;SDS011;2501;51.214;6.768;2022-12-01T12:04:38;62.97;;;24.83;;
4971;SDS011;2501;51.214;6.768;2022-12-01T12:07:23;112.43;;;31.40;;
4971;SDS011;2501;51.214;6.768;2022-12-01T12:10:08;57.17;;;26.50;;
4971;SDS011;2501;51.214;6.768;2022-12-01T12:12:51;56.40;;;25.30;;
4971;SDS011;2501;51.214;6.768;2022-12-01T12:15:32;56.67;;;26.40;;
4971;SDS011;2501;51.214;6.768;2022-12-01T12:18:24;66.93;;;26.50;;
4971;SDS011;2501;51.214;6.768;2022-12-01T12:21:09;75.90;;;27.98;;
4971;SDS011;2501;51.214;6.768;2022-12-01T12:23:54;91.93;;;29.65;;
4971;SDS011;2501;51.214;6.768;2022-12-01T12:26:34;74.78;;;30.42;;
4971;SDS011;2501;51.214;6.768;2022-12-01T12:29:15;52.97;;;26.23;;
4971;SDS011;2501;51.214;6.768;2022-12-01T12:31:56;56.50;;;27.10;;
4971;SDS011;2501;51.214;6.768;2022-12-01T12:34:42;58.88;;;27.17;;
4971;SDS011;2501;51.214;6.768;2022-12-01T12:37:21;71.03;;;29.25;;
4971;SDS011;2501;51.214;6.768;2022-12-01T12:40:03;54.00;;;28.07;;
4971;SDS011;2501;51.214;6.768;2022-12-01T12:42:50;105.10;;;34.25;;
4971;SDS011;2501;51.214;6.768;2022-12-01T12:45:29;76.07;;;31.95;;
4971;SDS011;2501;51.214;6.768;2022-12-01T12:48:13;68.40;;;30.25;;
4971;SDS011;2501;51.214;6.768;2022-12-01T12:50:52;67.15;;;29.52;;
4971;SDS011;2501;51.214;6.768;2022-12-01T12:53:27;79.72;;;30.60;;
4971;SDS011;2501;51.214;6.768;2022-12-01T12:56:05;66.20;;;29.10;;
4971;SDS011;2501;51.214;6.768;2022-12-01T12:58:40;134.50;;;35.25;;
4971;SDS011;2501;51.214;6.768;2022-12-01T13:01:22;69.80;;;29.15;;
4971;SDS011;2501;51.214;6.768;2022-12-01T13:03:57;150.37;;;38.23;;
4971;SDS011;2501;51.214;6.768;2022-12-01T13:06:32;110.90;;;38.55;;
4971;SDS011;2501;51.214;6.768;2022-12-01T13:09:06;62.10;;;30.02;;
4971;SDS011;2501;51.214;6.768;2022-12-01T13:11:43;66.25;;;32.65;;
4971;SDS011;2501;51.214;6.768;2022-12-01T13:14:16;66.78;;;30.50;;
4971;SDS011;2501;51.214;6.768;2022-12-01T13:16:51;75.75;;;35.08;;
4971;SDS011;2501;51.214;6.768;2022-12-01T13:19:24;68.93;;;34.65;;
4971;SDS011;2501;51.214;6.768;2022-12-01T13:21:55;83.35;;;34.80;;
4971;SDS011;2501;51.214;6.768;2022-12-01T13:24:27;130.93;;;40.10;;
4971;SDS011;2501;51.214;6.768;2022-12-01T13:27:01;141.88;;;42.95;;
4971;SDS011;2501;51.214;6.768;2022-12-01T13:29:33;102.20;;;39.67;;
4971;SDS011;2501;51.214;6.768;2022-12-01T13:32:05;107.05;;;39.47;;
4971;SDS011;2501;51.214;6.768;2022-12-01T13:34:36;94.57;;;38.27;;
4971;SDS011;2501;51.214;6.768;2022-12-01T13:37:07;70.40;;;35.10;;
4971;SDS011;2501;51.214;6.768;2022-12-01T13:39:38;83.77;;;38.03;;
4971;SDS011;2501;51.214;6.768;2022-12-01T13:42:18;77.47;;;36.05;;
4971;SDS011;2501;51.214;6.768;2022-12-01T13:44:50;77.97;;;35.28;;
4971;SDS011;2501;51.214;6.768;2022-12-01T13:47:30;78.13;;;35.25;;
4971;SDS011;2501;51.214;6.768;2022-12-01T13:53:24;100.47;;;39.78;;
4971;SDS011;2501;51.214;6.768;2022-12-01T13:55:55;99.85;;;40.10;;
4971;SDS011;2501;51.214;6.768;2022-12-01T14:04:28;95.95;;;38.75;;
4971;SDS011;2501;51.214;6.768;2022-12-01T14:09:48;78.55;;;37.33;;
4971;SDS011;2501;51.214;6.768;2022-12-01T14:12:20;98.60;;;40.40;;
4971;SDS011;2501;51.214;6.768;2022-12-01T14:14:55;79.30;;;37.78;;
4971;SDS011;2501;51.214;6.768;2022-12-01T14:17:28;78.47;;;37.47;;
4971;SDS011;2501;51.214;6.768;2022-12-01T14:20:03;85.22;;;38.45;;
4971;SDS011;2501;51.214;6.768;2022-12-01T14:22:45;103.43;;;39.83;;
4971;SDS011;2501;51.214;6.768;2022-12-01T14:25:22;90.47;;;41.33;;
4971;SDS011;2501;51.214;6.768;2022-12-01T14:27:54;95.85;;;42.35;;
4971;SDS011;2501;51.214;6.768;2022-12-01T14:36:28;144.63;;;44.80;;
4971;SDS011;2501;51.214;6.768;2022-12-01T14:39:02;117.00;;;42.33;;
4971;SDS011;2501;51.214;6.768;2022-12-01T14:41:38;116.38;;;43.47;;
4971;SDS011;2501;51.214;6.768;2022-12-01T14:44:17;96.65;;;41.47;;
4971;SDS011;2501;51.214;6.768;2022-12-01T14:46:51;93.28;;;40.33;;
4971;SDS011;2501;51.214;6.768;2022-12-01T14:49:28;91.65;;;39.33;;
4971;SDS011;2501;51.214;6.768;2022-12-01T14:52:02;90.90;;;41.47;;
4971;SDS011;2501;51.214;6.768;2022-12-01T14:54:37;87.38;;;41.20;;
4971;SDS011;2501;51.214;6.768;2022-12-01T14:57:11;84.80;;;39.77;;
4971;SDS011;2501;51.214;6.768;2022-12-01T14:59:44;97.07;;;42.88;;
4971;SDS011;2501;51.214;6.768;2022-12-01T15:02:12;98.60;;;43.97;;
4971;SDS011;2501;51.214;6.768;2022-12-01T15:07:38;90.82;;;43.22;;
4971;SDS011;2501;51.214;6.768;2022-12-01T15:10:14;94.32;;;44.13;;
4971;SDS011;2501;51.214;6.768;2022-12-01T15:12:44;95.43;;;43.13;;
4971;SDS011;2501;51.214;6.768;2022-12-01T15:15:14;93.72;;;43.53;;
4971;SDS011;2501;51.214;6.768;2022-12-01T15:17:45;99.38;;;44.60;;
4971;SDS011;2501;51.214;6.768;2022-12-01T15:20:29;95.03;;;43.70;;
4971;SDS011;2501;51.214;6.768;2022-12-01T15:23:00;100.40;;;44.08;;
4971;SDS011;2501;51.214;6.768;2022-12-01T15:25:43;96.97;;;43.53;;
4971;SDS011;2501;51.214;6.768;2022-12-01T15:28:13;93.10;;;42.80;;
4971;SDS011;2501;51.214;6.768;2022-12-01T15:30:45;101.07;;;43.80;;
4971;SDS011;2501;51.214;6.768;2022-12-01T15:33:16;91.97;;;43.78;;
4971;SDS011;2501;51.214;6.768;2022-12-01T15:35:49;98.57;;;45.53;;
4971;SDS011;2501;51.214;6.768;2022-12-01T15:38:19;94.53;;;45.17;;
4971;SDS011;2501;51.214;6.768;2022-12-01T15:40:51;96.53;;;44.90;;